createdAt,value
2022-08-17T00:00:54.076Z,55.23681641
2022-08-17T00:01:54.915Z,55.43212891
2022-08-17T00:02:56.345Z,55.53588867
2022-08-17T00:03:57.083Z,55.83496094
2022-08-17T00:04:57.940Z,55.93261719
2022-08-17T00:05:58.816Z,56.03027344
2022-08-17T00:06:59.573Z,56.23168945
2022-08-17T00:08:01.218Z,56.3293457
2022-08-17T00:09:02.050Z,56.3293457
2022-08-17T00:10:02.854Z,56.43310547
2022-08-17T00:11:04.437Z,56.43310547
2022-08-17T00:12:41.996Z,56.53076172
2022-08-17T00:13:06.642Z,56.53076172
2022-08-17T00:14:07.542Z,56.53076172
2022-08-17T00:15:10.475Z,56.53076172
2022-08-17T00:16:09.167Z,56.60400391
2022-08-17T00:17:09.920Z,56.70166016
2022-08-17T00:18:57.453Z,56.80541992
2022-08-17T00:19:41.670Z,57.03125
2022-08-17T00:21:13.779Z,57.03125
2022-08-17T00:22:32.472Z,57.12890625
2022-08-17T00:23:48.991Z,57.33032227
2022-08-17T00:24:47.577Z,57.2265625
2022-08-17T00:25:48.385Z,57.42797852
2022-08-17T00:26:49.073Z,57.75756836
2022-08-17T00:27:50.770Z,57.85522461
2022-08-17T00:28:51.462Z,57.95288086
2022-08-17T00:29:52.284Z,58.05664063
2022-08-17T00:30:53.781Z,58.15429688
2022-08-17T00:31:54.402Z,58.25195313
2022-08-17T00:33:23.093Z,58.25195313
2022-08-17T00:33:56.757Z,58.45336914
2022-08-17T00:34:57.570Z,58.55102539
2022-08-17T00:35:58.394Z,58.55102539
2022-08-17T00:36:59.235Z,58.55102539
2022-08-17T00:37:59.969Z,58.45336914
2022-08-17T00:39:00.861Z,58.45336914
2022-08-17T00:40:01.797Z,58.65478516
2022-08-17T00:41:02.625Z,58.75244141
2022-08-17T00:42:03.372Z,58.75244141
2022-08-17T00:43:04.774Z,58.85009766
2022-08-17T00:44:05.506Z,58.85009766
2022-08-17T00:45:06.346Z,58.85009766
2022-08-17T00:46:07.164Z,58.55102539
2022-08-17T00:47:07.916Z,58.65478516
2022-08-17T00:48:27.218Z,58.65478516
2022-08-17T00:49:09.552Z,58.65478516
2022-08-17T00:50:10.974Z,58.55102539
2022-08-17T00:51:11.975Z,58.35571289
2022-08-17T00:52:12.765Z,58.35571289
2022-08-17T00:53:14.337Z,58.25195313
2022-08-17T00:54:15.513Z,58.15429688
2022-08-17T00:55:46.744Z,58.15429688
2022-08-17T00:56:47.619Z,58.15429688
2022-08-17T00:57:51.189Z,57.85522461
2022-08-17T00:58:49.045Z,57.75756836
2022-08-17T00:59:55.997Z,57.55615234
2022-08-17T01:00:50.919Z,57.65380859
2022-08-17T01:01:52.425Z,57.55615234
2022-08-17T01:02:54.057Z,57.65380859
2022-08-17T01:03:55.623Z,57.55615234
2022-08-17T01:04:55.366Z,57.45849609
2022-08-17T01:05:56.210Z,57.45849609
2022-08-17T01:06:57.017Z,57.45849609
2022-08-17T01:07:58.353Z,57.55615234
2022-08-17T01:08:59.048Z,57.55615234
2022-08-17T01:09:59.857Z,57.55615234
2022-08-17T01:11:01.830Z,57.65380859
2022-08-17T01:12:01.434Z,57.75756836
2022-08-17T01:13:02.832Z,57.85522461
2022-08-17T01:14:03.700Z,57.75756836
2022-08-17T01:15:04.502Z,57.75756836
2022-08-17T01:16:05.404Z,57.65380859
2022-08-17T01:17:06.305Z,57.75756836
2022-08-17T01:18:07.109Z,57.75756836
2022-08-17T01:19:07.883Z,57.85522461
2022-08-17T01:20:08.650Z,57.85522461
2022-08-17T01:21:10.346Z,58.15429688
2022-08-17T01:22:11.360Z,58.25195313
2022-08-17T01:23:12.764Z,58.25195313
2022-08-17T01:24:13.565Z,58.35571289
2022-08-17T01:25:14.279Z,58.65478516
2022-08-17T01:26:45.794Z,58.75244141
2022-08-17T01:27:47.408Z,58.65478516
2022-08-17T01:28:54.857Z,58.95385742
2022-08-17T01:29:48.994Z,58.65478516
2022-08-17T01:30:57.921Z,58.45336914
2022-08-17T01:31:50.638Z,58.45336914
2022-08-17T01:32:52.484Z,58.45336914
2022-08-17T01:33:53.182Z,58.45336914
2022-08-17T01:34:54.003Z,58.45336914
2022-08-17T01:35:54.841Z,58.35571289
2022-08-17T01:36:56.354Z,58.25195313
2022-08-17T01:37:57.162Z,58.35571289
2022-08-17T01:38:58.148Z,58.35571289
2022-08-17T01:39:58.921Z,58.35571289
2022-08-17T01:40:59.736Z,58.25195313
2022-08-17T01:42:00.564Z,58.25195313
2022-08-17T01:43:01.899Z,58.45336914
2022-08-17T01:44:02.588Z,58.35571289
2022-08-17T01:45:03.304Z,58.45336914
2022-08-17T01:46:04.242Z,58.35571289
2022-08-17T01:47:05.009Z,58.45336914
2022-08-17T01:48:05.957Z,58.35571289
2022-08-17T01:49:06.681Z,58.45336914
2022-08-17T01:50:07.392Z,58.45336914
2022-08-17T01:51:08.241Z,58.45336914
2022-08-17T01:52:09.035Z,58.55102539
2022-08-17T01:53:10.373Z,58.42285156
2022-08-17T01:54:11.948Z,58.32519531
2022-08-17T01:55:12.670Z,58.65478516
2022-08-17T01:56:13.445Z,58.85009766
2022-08-17T01:57:14.732Z,59.38110352
2022-08-17T01:58:45.975Z,59.47875977
2022-08-17T01:59:46.696Z,59.57641602
2022-08-17T02:01:00.631Z,59.68017578
2022-08-17T02:01:48.427Z,59.68017578
2022-08-17T02:02:50.147Z,59.87548828
2022-08-17T02:03:54.552Z,59.87548828
2022-08-17T02:04:51.452Z,59.77783203
2022-08-17T02:05:52.224Z,59.87548828
2022-08-17T02:06:54.577Z,59.97924805
2022-08-17T02:07:59.551Z,60.0769043
2022-08-17T02:09:01.807Z,60.17456055
2022-08-17T02:09:56.037Z,60.30883789
2022-08-17T02:10:56.825Z,60.40649414
2022-08-17T02:11:57.665Z,60.50415039
2022-08-17T02:12:59.522Z,60.70556641
2022-08-17T02:14:02.855Z,60.70556641
2022-08-17T02:15:01.201Z,60.70556641
2022-08-17T02:16:01.926Z,60.80322266
2022-08-17T02:17:02.700Z,60.80322266
2022-08-17T02:18:03.555Z,60.90698242
2022-08-17T02:19:04.377Z,61.00463867
2022-08-17T02:20:05.152Z,61.00463867
2022-08-17T02:21:06.003Z,61.10229492
2022-08-17T02:22:06.768Z,61.00463867
2022-08-17T02:23:08.451Z,61.00463867
2022-08-17T02:24:09.269Z,61.00463867
2022-08-17T02:25:10.071Z,60.97412109
2022-08-17T02:26:10.786Z,60.87646484
2022-08-17T02:27:11.714Z,60.67504883
2022-08-17T02:28:12.545Z,60.77880859
2022-08-17T02:29:13.357Z,60.77880859
2022-08-17T02:31:02.002Z,60.77880859
2022-08-17T02:31:45.706Z,60.77880859
2022-08-17T02:32:46.351Z,60.67504883
2022-08-17T02:34:00.350Z,60.77880859
2022-08-17T02:34:48.777Z,60.77880859
2022-08-17T02:35:49.577Z,60.77880859
2022-08-17T02:36:50.443Z,60.87646484
2022-08-17T02:37:51.940Z,60.87646484
2022-08-17T02:38:52.131Z,60.77880859
2022-08-17T02:39:53.922Z,60.65063477
2022-08-17T02:40:54.648Z,60.65063477
2022-08-17T02:41:55.395Z,60.546875
2022-08-17T02:42:56.978Z,60.44921875
2022-08-17T02:43:57.804Z,60.44921875
2022-08-17T02:44:59.533Z,60.44921875
2022-08-17T02:46:00.366Z,60.546875
2022-08-17T02:47:01.258Z,60.44921875
2022-08-17T02:48:01.964Z,60.34545898
2022-08-17T02:49:02.810Z,60.34545898
2022-08-17T02:50:03.615Z,60.34545898
2022-08-17T02:51:05.367Z,60.34545898
2022-08-17T02:52:06.090Z,60.34545898
2022-08-17T02:53:07.767Z,60.34545898
2022-08-17T02:54:39.706Z,60.44921875
2022-08-17T02:55:09.012Z,60.65063477
2022-08-17T02:56:09.707Z,60.74829102
2022-08-17T02:57:10.524Z,60.94970703
2022-08-17T02:58:11.155Z,61.17553711
2022-08-17T02:59:12.255Z,61.07788086
2022-08-17T03:00:13.105Z,61.14501953
2022-08-17T03:01:44.733Z,61.14501953
2022-08-17T03:02:45.358Z,61.14501953
2022-08-17T03:03:46.799Z,61.2487793
2022-08-17T03:04:47.610Z,61.14501953
2022-08-17T03:05:48.453Z,61.14501953
2022-08-17T03:06:49.301Z,61.2487793
2022-08-17T03:07:51.060Z,61.04736328
2022-08-17T03:08:51.889Z,61.04736328
2022-08-17T03:09:52.703Z,61.04736328
2022-08-17T03:10:53.504Z,61.04736328
2022-08-17T03:11:55.829Z,61.14501953
2022-08-17T03:12:55.037Z,61.14501953
2022-08-17T03:13:56.266Z,61.2487793
2022-08-17T03:14:57.004Z,61.14501953
2022-08-17T03:15:57.864Z,61.34643555
2022-08-17T03:16:58.759Z,61.4440918
2022-08-17T03:17:59.654Z,61.54785156
2022-08-17T03:19:00.516Z,61.67602539
2022-08-17T03:20:01.367Z,61.87133789
2022-08-17T03:21:02.186Z,61.87133789
2022-08-17T03:22:35.442Z,62.07275391
2022-08-17T03:23:03.802Z,62.07275391
2022-08-17T03:24:06.917Z,61.97509766
2022-08-17T03:25:10.690Z,61.97509766
2022-08-17T03:26:06.756Z,61.97509766
2022-08-17T03:27:07.591Z,61.97509766
2022-08-17T03:28:08.382Z,61.94458008
2022-08-17T03:29:09.925Z,62.04223633
2022-08-17T03:30:10.627Z,61.94458008
2022-08-17T03:31:11.571Z,61.84692383
2022-08-17T03:32:12.350Z,61.84692383
2022-08-17T03:33:13.652Z,61.84692383
2022-08-17T03:34:45.593Z,61.84692383
2022-08-17T03:35:46.288Z,61.94458008
2022-08-17T03:36:47.130Z,61.84692383
2022-08-17T03:37:47.959Z,61.94458008
2022-08-17T03:38:48.737Z,61.94458008
2022-08-17T03:39:49.455Z,62.04223633
2022-08-17T03:40:56.907Z,62.04223633
2022-08-17T03:41:50.799Z,62.24365234
2022-08-17T03:42:51.707Z,62.44506836
2022-08-17T03:43:52.979Z,62.34130859
2022-08-17T03:44:53.633Z,62.37182617
2022-08-17T03:45:54.445Z,62.57324219
2022-08-17T03:46:55.240Z,62.67089844
2022-08-17T03:47:57.073Z,62.7746582
2022-08-17T03:48:57.849Z,62.87231445
2022-08-17T03:49:58.545Z,62.9699707
2022-08-17T03:50:59.291Z,62.87231445
2022-08-17T03:51:59.973Z,62.9699707
2022-08-17T03:53:00.639Z,63.07373047
2022-08-17T03:54:02.328Z,63.07373047
2022-08-17T03:55:03.052Z,63.07373047
2022-08-17T03:56:03.764Z,62.9699707
2022-08-17T03:57:04.645Z,62.9699707
2022-08-17T03:58:05.484Z,62.87231445
2022-08-17T03:59:06.366Z,62.9699707
2022-08-17T04:00:07.842Z,62.9699707
2022-08-17T04:01:08.562Z,63.07373047
2022-08-17T04:02:09.261Z,63.26904297
2022-08-17T04:03:10.120Z,63.26904297
2022-08-17T04:04:11.875Z,63.26904297
2022-08-17T04:05:12.619Z,63.17138672
2022-08-17T04:06:43.691Z,63.17138672
2022-08-17T04:07:44.541Z,63.37280273
2022-08-17T04:08:45.353Z,63.70239258
2022-08-17T04:09:46.189Z,63.90380859
2022-08-17T04:10:46.955Z,64.00146484
2022-08-17T04:11:47.736Z,64.00146484
2022-08-17T04:12:48.818Z,64.00146484
2022-08-17T04:13:50.003Z,64.20288086
2022-08-17T04:14:53.481Z,64.39819336
2022-08-17T04:15:51.697Z,64.39819336
2022-08-17T04:16:52.422Z,64.30053711
2022-08-17T04:17:53.210Z,64.20288086
2022-08-17T04:18:54.040Z,64.09912109
2022-08-17T04:19:54.916Z,64.00146484
2022-08-17T04:20:55.693Z,64.09912109
2022-08-17T04:21:56.461Z,64.20288086
2022-08-17T04:22:57.230Z,64.20288086
2022-08-17T04:23:58.996Z,64.20288086
2022-08-17T04:24:59.988Z,64.30053711
2022-08-17T04:26:00.769Z,64.30053711
2022-08-17T04:27:01.477Z,64.20288086
2022-08-17T04:28:02.813Z,64.00146484
2022-08-17T04:29:03.626Z,63.90380859
2022-08-17T04:30:05.487Z,63.80004883
2022-08-17T04:31:06.293Z,63.90380859
2022-08-17T04:32:07.144Z,63.80004883
2022-08-17T04:33:07.969Z,63.70239258
2022-08-17T04:34:09.495Z,63.70239258
2022-08-17T04:35:10.343Z,63.90380859
2022-08-17T04:36:11.081Z,64.00146484
2022-08-17T04:37:12.018Z,63.90380859
2022-08-17T04:38:43.700Z,63.70239258
2022-08-17T04:39:44.444Z,63.70239258
2022-08-17T04:40:45.172Z,63.50097656
2022-08-17T04:41:45.911Z,63.50097656
2022-08-17T04:42:46.692Z,63.59863281
2022-08-17T04:43:47.945Z,63.29956055
2022-08-17T04:44:48.620Z,63.07373047
2022-08-17T04:45:55.632Z,62.9699707
2022-08-17T04:46:49.998Z,62.87231445
2022-08-17T04:47:50.686Z,62.87231445
2022-08-17T04:48:51.371Z,62.9699707
2022-08-17T04:49:52.034Z,62.87231445
2022-08-17T04:50:52.787Z,62.87231445
2022-08-17T04:51:55.708Z,62.7746582
2022-08-17T04:52:54.369Z,62.67089844
2022-08-17T04:53:55.468Z,62.7746582
2022-08-17T04:54:56.158Z,62.87231445
2022-08-17T04:55:56.932Z,62.67089844
2022-08-17T04:56:57.562Z,62.57324219
2022-08-17T04:57:58.260Z,62.67089844
2022-08-17T04:58:58.956Z,62.67089844
2022-08-17T05:00:00.330Z,62.7746582
2022-08-17T05:01:01.085Z,62.87231445
2022-08-17T05:02:01.735Z,62.87231445
2022-08-17T05:03:02.421Z,62.67089844
2022-08-17T05:04:20.785Z,62.7746582
2022-08-17T05:05:04.692Z,62.57324219
2022-08-17T05:06:05.393Z,62.47558594
2022-08-17T05:07:06.045Z,62.37182617
2022-08-17T05:08:06.736Z,62.47558594
2022-08-17T05:09:07.420Z,62.57324219
2022-08-17T05:10:08.109Z,62.67089844
2022-08-17T05:11:08.864Z,62.67089844
2022-08-17T05:12:09.539Z,62.67089844
2022-08-17T05:13:10.800Z,62.67089844
2022-08-17T05:14:12.454Z,62.67089844
2022-08-17T05:15:45.198Z,62.7746582
2022-08-17T05:16:44.132Z,62.67089844
2022-08-17T05:17:44.821Z,62.67089844
2022-08-17T05:18:45.557Z,62.7746582
2022-08-17T05:19:51.375Z,62.7746582
2022-08-17T05:20:46.942Z,62.67089844
2022-08-17T05:21:47.692Z,62.57324219
2022-08-17T05:22:48.401Z,62.67089844
2022-08-17T05:23:53.903Z,62.7746582
2022-08-17T05:24:53.545Z,62.7746582
2022-08-17T05:25:50.995Z,62.67089844
2022-08-17T05:26:51.802Z,62.47558594
2022-08-17T05:27:52.417Z,62.07275391
2022-08-17T05:28:53.140Z,61.84692383
2022-08-17T05:29:54.465Z,61.74316406
2022-08-17T05:30:55.175Z,61.54785156
2022-08-17T05:31:55.947Z,61.2487793
2022-08-17T05:32:56.575Z,61.2487793
2022-08-17T05:33:57.254Z,61.34643555
2022-08-17T05:34:58.802Z,61.54785156
2022-08-17T05:35:59.509Z,61.64550781
2022-08-17T05:37:00.343Z,61.94458008
2022-08-17T05:38:01.974Z,61.94458008
2022-08-17T05:39:02.675Z,62.14599609
2022-08-17T05:40:03.446Z,62.34130859
2022-08-17T05:41:04.095Z,62.67089844
2022-08-17T05:42:04.823Z,63.07373047
2022-08-17T05:43:05.518Z,63.37280273
2022-08-17T05:44:06.974Z,63.671875
2022-08-17T05:45:07.669Z,63.76953125
2022-08-17T05:46:08.356Z,64.00146484
2022-08-17T05:47:09.913Z,64.20288086
2022-08-17T05:48:10.477Z,64.39819336
2022-08-17T05:49:11.817Z,64.69726563
2022-08-17T05:50:42.849Z,64.69726563
2022-08-17T05:51:43.530Z,64.80102539
2022-08-17T05:52:44.265Z,64.80102539
2022-08-17T05:53:44.900Z,64.99633789
2022-08-17T05:54:46.328Z,65.10009766
2022-08-17T05:55:47.044Z,65.19775391
2022-08-17T05:56:47.729Z,65.4296875
2022-08-17T05:57:53.654Z,65.52734375
2022-08-17T05:58:49.106Z,65.52734375
2022-08-17T05:59:50.472Z,65.63110352
2022-08-17T06:00:51.291Z,65.72875977
2022-08-17T06:01:51.878Z,65.82641602
2022-08-17T06:02:52.942Z,65.72875977
2022-08-17T06:03:53.970Z,65.72875977
2022-08-17T06:04:54.645Z,65.60058594
2022-08-17T06:05:55.340Z,65.39916992
2022-08-17T06:06:56.050Z,65.30151367
2022-08-17T06:07:57.373Z,65.30151367
2022-08-17T06:08:58.055Z,65.39916992
2022-08-17T06:09:58.733Z,65.39916992
2022-08-17T06:10:59.502Z,65.10009766
2022-08-17T06:12:00.224Z,64.89868164
2022-08-17T06:13:00.953Z,64.80102539
2022-08-17T06:14:01.620Z,65.10009766
2022-08-17T06:15:03.075Z,65.30151367
2022-08-17T06:16:03.734Z,64.59960938
2022-08-17T06:17:04.481Z,64.59960938
2022-08-17T06:18:05.178Z,64.36767578
2022-08-17T06:19:05.840Z,64.17236328
2022-08-17T06:20:06.527Z,64.27001953
2022-08-17T06:21:07.240Z,64.36767578
2022-08-17T06:22:07.909Z,63.76953125
2022-08-17T06:23:08.652Z,63.56811523
2022-08-17T06:24:09.265Z,63.56811523
2022-08-17T06:25:10.960Z,62.9699707
2022-08-17T06:26:43.385Z,63.07373047
2022-08-17T06:27:43.510Z,63.07373047
2022-08-17T06:28:44.216Z,63.26904297
2022-08-17T06:29:44.865Z,62.93945313
2022-08-17T06:31:00.404Z,62.74414063
2022-08-17T06:31:46.289Z,62.44506836
2022-08-17T06:32:47.035Z,62.34130859
2022-08-17T06:33:47.675Z,62.24365234
2022-08-17T06:34:48.989Z,62.24365234
2022-08-17T06:35:49.736Z,62.24365234
2022-08-17T06:36:50.428Z,62.04223633
2022-08-17T06:37:51.146Z,61.9140625
2022-08-17T06:38:51.870Z,61.81640625
2022-08-17T06:39:52.625Z,61.31591797
2022-08-17T06:40:53.285Z,61.41357422
2022-08-17T18:53:43.207Z,89.94750977
2022-08-17T18:54:43.643Z,89.64233398
2022-08-17T18:55:44.052Z,88.94042969
2022-08-17T18:56:45.071Z,89.34326172
2022-08-17T18:57:44.911Z,88.53759766
2022-08-17T18:58:45.293Z,89.74609375
2022-08-17T18:59:45.640Z,88.73901367
2022-08-17T19:00:46.049Z,87.93334961
2022-08-17T19:01:52.805Z,88.13476563
2022-08-17T19:02:47.037Z,86.42578125
2022-08-17T19:03:48.182Z,87.32910156
2022-08-17T19:04:48.597Z,87.12768555
2022-08-17T19:05:48.995Z,86.22436523
2022-08-17T19:06:49.401Z,87.02392578
2022-08-17T19:07:50.075Z,86.82861328
2022-08-17T19:08:50.339Z,86.5234375
2022-08-17T19:09:50.723Z,87.62817383
2022-08-17T19:10:51.124Z,86.98730469
2022-08-17T19:11:51.523Z,86.38305664
2022-08-17T19:12:51.922Z,86.38305664
2022-08-17T19:13:53.191Z,85.57739258
2022-08-17T19:14:53.635Z,85.27832031
2022-08-17T19:16:14.387Z,84.67407227
2022-08-17T19:16:54.422Z,84.67407227
2022-08-17T19:17:54.821Z,84.97314453
2022-08-17T19:18:55.284Z,83.8684082
2022-08-17T19:19:55.734Z,84.36889648
2022-08-17T19:20:56.205Z,84.36889648
2022-08-17T19:21:56.625Z,84.27124023
2022-08-17T19:22:57.054Z,85.0769043
2022-08-17T19:23:58.208Z,85.17456055
2022-08-17T19:25:02.925Z,83.76464844
2022-08-17T19:25:59.078Z,84.36889648
2022-08-17T19:26:59.650Z,84.27124023
2022-08-17T19:28:00.387Z,84.27124023
2022-08-17T19:29:00.482Z,84.16748047
2022-08-17T19:30:06.982Z,84.16748047
2022-08-17T19:31:01.342Z,84.47265625
2022-08-17T19:32:01.775Z,84.67407227
2022-08-17T19:33:02.218Z,84.5703125
2022-08-17T19:34:03.699Z,84.97314453
2022-08-17T19:35:04.149Z,84.77172852
2022-08-17T19:36:04.608Z,84.16748047
2022-08-17T19:37:04.999Z,84.77172852
2022-08-17T19:38:05.434Z,85.03417969
2022-08-17T19:39:05.922Z,84.33227539
2022-08-17T19:40:06.396Z,84.13085938
2022-08-17T19:41:06.777Z,84.13085938
2022-08-17T19:42:07.870Z,83.63037109
2022-08-17T19:43:08.284Z,84.22851563
2022-08-17T19:44:09.773Z,84.42993164
2022-08-17T19:45:10.181Z,84.4909668
2022-08-17T19:46:10.601Z,82.68432617
2022-08-17T19:47:11.499Z,82.31811523
2022-08-17T19:48:42.140Z,82.92236328
2022-08-17T19:49:42.572Z,83.22753906
2022-08-17T19:50:42.969Z,82.68432617
2022-08-17T19:51:43.381Z,82.58056641
2022-08-17T19:52:43.784Z,82.98339844
2022-08-17T19:54:04.237Z,84.08813477
2022-08-17T19:54:45.431Z,84.59472656
2022-08-17T19:55:45.783Z,84.59472656
2022-08-17T19:56:46.189Z,82.28149414
2022-08-17T19:57:46.724Z,81.37817383
2022-08-17T19:58:47.029Z,82.37915039
2022-08-17T19:59:47.517Z,83.44726563
2022-08-17T20:00:47.905Z,83.28857422
2022-08-17T20:01:48.355Z,84.35058594
2022-08-17T20:02:48.737Z,84.4543457
2022-08-17T20:03:49.676Z,84.85107422
2022-08-17T20:04:50.724Z,84.75341797
2022-08-17T20:06:11.445Z,83.94775391
2022-08-17T20:06:51.540Z,83.80737305
2022-08-17T20:07:52.198Z,84.00878906
2022-08-17T20:08:52.372Z,84.41162109
2022-08-17T20:09:52.832Z,83.91113281
2022-08-17T20:10:54.838Z,84.41162109
2022-08-17T20:11:53.617Z,84.41162109
2022-08-17T20:12:54.893Z,84.31396484
2022-08-17T20:13:55.279Z,82.46459961
2022-08-17T20:14:56.400Z,83.47167969
2022-08-17T20:15:56.800Z,81.76269531
2022-08-17T20:17:00.510Z,81.86645508
2022-08-17T20:17:57.682Z,82.46459961
2022-08-17T20:18:58.076Z,82.16552734
2022-08-17T20:19:58.506Z,82.76367188
2022-08-17T20:20:59.393Z,81.86645508
2022-08-17T20:21:59.792Z,81.96411133
2022-08-17T20:23:00.298Z,82.16552734
2022-08-17T20:24:01.692Z,82.76367188
2022-08-17T20:25:02.130Z,82.82470703
2022-08-17T20:26:02.495Z,82.02514648
2022-08-17T20:27:02.902Z,81.82373047
2022-08-17T20:28:05.756Z,80.82275391
2022-08-17T20:29:03.745Z,81.22558594
2022-08-17T20:30:04.225Z,80.52368164
2022-08-17T20:31:04.652Z,79.51660156
2022-08-17T20:32:05.051Z,79.31518555
2022-08-17T20:33:05.460Z,78.81469727
2022-08-17T20:34:06.678Z,80.21850586
2022-08-17T20:35:07.128Z,79.51660156
2022-08-17T20:36:07.503Z,80.71899414
2022-08-17T20:37:07.938Z,80.41992188
2022-08-17T20:38:08.312Z,80.32226563
2022-08-17T20:39:09.373Z,80.52368164
2022-08-17T20:40:09.963Z,80.71899414
2022-08-17T20:41:10.201Z,81.32324219
2022-08-17T20:42:41.047Z,79.01611328
2022-08-17T20:43:41.777Z,79.71801758
2022-08-17T20:44:42.905Z,79.91943359
2022-08-17T20:45:43.365Z,78.91845703
2022-08-17T20:46:43.782Z,80.01708984
2022-08-17T20:48:07.506Z,79.51660156
2022-08-17T20:48:44.993Z,79.41894531
2022-08-17T20:49:45.010Z,80.12084961
2022-08-17T20:50:46.234Z,80.21850586
2022-08-17T20:52:00.674Z,80.76171875
2022-08-17T20:52:47.075Z,79.95605469
2022-08-17T20:53:47.517Z,79.51660156
2022-08-17T20:54:47.926Z,79.91943359
2022-08-17T20:55:51.448Z,79.01611328
2022-08-17T20:56:48.709Z,78.71704102
2022-08-17T20:57:49.262Z,79.41894531
2022-08-17T20:58:49.552Z,79.91943359
2022-08-17T20:59:49.990Z,79.31518555
2022-08-17T21:00:50.505Z,79.82177734
2022-08-17T21:01:50.883Z,79.82177734
2022-08-17T21:02:51.295Z,80.71899414
2022-08-17T21:03:52.717Z,79.91943359
2022-08-17T21:04:53.685Z,79.2175293
2022-08-17T21:05:57.426Z,79.62036133
2022-08-17T21:06:54.465Z,79.2175293
2022-08-17T21:07:55.097Z,79.31518555
2022-08-17T21:08:55.300Z,79.71801758
2022-08-17T21:09:55.689Z,79.11987305
2022-08-17T21:10:56.084Z,79.51660156
2022-08-17T21:12:03.848Z,79.11987305
2022-08-17T21:12:57.393Z,79.31518555
2022-08-17T21:13:57.816Z,79.2175293
2022-08-17T21:14:58.882Z,78.61328125
2022-08-17T21:15:59.325Z,78.21655273
2022-08-17T21:16:59.698Z,77.8137207
2022-08-17T21:18:00.085Z,77.11181641
2022-08-17T21:19:00.606Z,77.51464844
2022-08-17T21:20:11.049Z,77.8137207
2022-08-17T21:21:02.437Z,78.31420898
2022-08-17T21:22:02.790Z,77.8137207
2022-08-17T21:23:03.195Z,77.61230469
2022-08-17T21:24:03.602Z,78.91845703
2022-08-17T21:25:04.091Z,78.95507813
2022-08-17T21:26:04.518Z,78.01513672
2022-08-17T21:27:05.425Z,79.15649414
2022-08-17T21:28:05.899Z,78.75366211
2022-08-17T21:29:30.144Z,78.35083008
2022-08-17T21:30:10.044Z,77.8503418
2022-08-17T21:31:07.101Z,78.55224609
2022-08-17T21:32:07.547Z,77.8503418
2022-08-17T21:33:07.895Z,78.85131836
2022-08-17T21:34:08.295Z,79.35791016
2022-08-17T21:35:09.398Z,78.14941406
2022-08-17T21:36:40.397Z,78.65600586
2022-08-17T21:37:40.759Z,77.8503418
2022-08-17T21:38:41.164Z,78.35083008
2022-08-17T21:39:41.773Z,77.75268555
2022-08-17T21:40:42.084Z,77.55126953
2022-08-17T21:41:42.497Z,78.35083008
2022-08-17T21:42:43.691Z,78.75366211
2022-08-17T21:43:44.079Z,77.94799805
2022-08-17T21:44:45.203Z,78.11279297
2022-08-17T21:45:45.593Z,78.11279297
2022-08-17T21:46:46.565Z,78.91845703
2022-08-17T21:47:46.911Z,79.01611328
2022-08-17T21:48:48.369Z,78.515625
2022-08-17T21:49:47.698Z,78.21655273
2022-08-17T21:50:48.091Z,77.71606445
2022-08-17T21:51:48.479Z,77.57568359
2022-08-17T21:52:48.880Z,77.67333984
2022-08-17T21:53:49.329Z,77.07519531
2022-08-17T21:54:49.746Z,76.67236328
2022-08-17T21:55:50.697Z,76.8737793
2022-08-17T21:56:51.140Z,77.07519531
2022-08-17T21:57:52.969Z,76.47094727
2022-08-17T21:58:52.700Z,76.97753906
2022-08-17T21:59:53.113Z,76.67236328
2022-08-17T22:00:53.582Z,76.171875
2022-08-17T22:02:05.358Z,75.33569336
2022-08-17T22:03:55.701Z,75.93383789
2022-08-17T22:04:56.082Z,76.13525391
2022-08-17T22:05:57.232Z,75.73852539
2022-08-17T22:06:57.925Z,75.03662109
2022-08-17T22:07:58.044Z,74.73144531
2022-08-17T22:08:58.426Z,74.93286133
2022-08-17T22:09:58.827Z,75.57373047
2022-08-17T22:10:59.222Z,75.97045898
2022-08-17T22:11:59.617Z,76.57470703
2022-08-17T22:13:00.924Z,76.171875
2022-08-17T22:14:05.663Z,75.67138672
2022-08-17T22:15:01.707Z,75.67138672
2022-08-17T22:16:02.706Z,75.26855469
2022-08-17T22:17:03.118Z,75.76904297
2022-08-17T22:18:03.530Z,76.171875
2022-08-17T22:19:03.913Z,75.87280273
2022-08-17T22:20:04.317Z,75.26855469
2022-08-17T22:21:04.747Z,75.17089844
2022-08-17T22:22:05.137Z,75.26855469
2022-08-17T22:23:05.538Z,75.97045898
2022-08-17T22:24:05.915Z,76.47094727
2022-08-17T22:25:06.296Z,75.67138672
2022-08-17T22:26:09.511Z,75.90942383
2022-08-17T22:27:07.651Z,76.00708008
2022-08-17T22:28:08.064Z,75.87280273
2022-08-17T22:29:08.438Z,75.67138672
2022-08-17T22:30:09.317Z,75.97045898
2022-08-17T22:31:39.913Z,76.30615234
2022-08-17T22:32:40.294Z,76.07421875
2022-08-17T22:33:40.735Z,75.97045898
2022-08-17T22:34:41.105Z,75.57373047
2022-08-17T22:35:41.679Z,75.87280273
2022-08-17T22:36:42.916Z,76.07421875
2022-08-17T22:37:43.337Z,76.171875
2022-08-17T22:38:43.861Z,76.171875
2022-08-17T22:39:44.244Z,76.07421875
2022-08-17T22:40:45.412Z,76.07421875
2022-08-17T22:41:45.821Z,76.07421875
2022-08-17T22:42:46.234Z,75.87280273
2022-08-17T22:43:46.750Z,76.11083984
2022-08-17T22:44:47.166Z,76.30615234
2022-08-17T22:45:47.573Z,76.40991211
2022-08-17T22:46:47.984Z,76.40991211
2022-08-17T22:47:48.410Z,76.70898438
2022-08-17T22:48:48.885Z,76.70898438
2022-08-17T22:49:53.487Z,76.81274414
2022-08-17T22:50:50.429Z,76.81274414
2022-08-17T22:51:50.816Z,76.91040039
2022-08-17T22:52:51.212Z,76.70898438
2022-08-17T22:53:53.636Z,76.91040039
2022-08-17T22:54:52.065Z,76.91040039
2022-08-17T22:55:52.524Z,76.61132813
2022-08-17T22:56:52.943Z,76.37329102
2022-08-17T22:57:53.387Z,76.50756836
2022-08-17T22:58:59.054Z,76.81274414
2022-08-17T22:59:54.250Z,76.91040039
2022-08-17T23:00:55.420Z,76.81274414
2022-08-17T23:01:55.825Z,76.91040039
2022-08-17T23:02:56.361Z,76.81274414
2022-08-17T23:03:56.855Z,76.91040039
2022-08-17T23:04:57.236Z,77.41088867
2022-08-17T23:05:58.440Z,77.61230469
2022-08-17T23:06:58.827Z,77.51464844
2022-08-17T23:07:59.713Z,77.20947266
2022-08-17T23:09:00.334Z,76.81274414
2022-08-17T23:10:00.709Z,77.11181641
2022-08-17T23:11:01.972Z,77.41088867
2022-08-17T23:12:02.424Z,77.31323242
2022-08-17T23:13:02.837Z,77.31323242
2022-08-17T23:14:03.313Z,77.41088867
2022-08-17T23:15:04.419Z,77.31323242
2022-08-17T23:16:04.941Z,76.40991211
2022-08-17T23:17:05.303Z,76.40991211
2022-08-17T23:18:05.696Z,76.67236328
2022-08-17T23:19:06.193Z,76.171875
2022-08-17T23:20:06.574Z,75.87280273